createdAt,value
2023-05-25T00:00:20.322Z,23.44
2023-05-25T00:02:49.866Z,23.40
2023-05-25T00:05:19.413Z,23.39
2023-05-25T00:07:49.103Z,23.35
2023-05-25T00:10:18.384Z,23.47
2023-05-25T00:12:47.583Z,23.30
2023-05-25T00:15:17.055Z,23.24
2023-05-25T00:17:50.014Z,23.27
2023-05-25T00:20:20.658Z,23.38
2023-05-25T00:22:49.786Z,23.41
2023-05-25T00:25:19.651Z,23.49
2023-05-25T00:27:48.873Z,23.57
2023-05-25T00:30:18.045Z,23.65
2023-05-25T00:32:47.526Z,23.25
2023-05-25T00:35:17.420Z,23.31
2023-05-25T00:37:47.617Z,23.52
2023-05-25T00:40:18.607Z,23.44
2023-05-25T00:42:49.316Z,23.32
2023-05-25T00:45:21.690Z,23.40
2023-05-25T00:47:53.854Z,23.51
2023-05-25T00:50:41.725Z,23.72
2023-05-25T00:53:13.053Z,23.81
2023-05-25T00:55:59.243Z,23.72
2023-05-25T00:58:32.464Z,23.63
2023-05-25T01:01:03.197Z,23.62
2023-05-25T01:03:39.191Z,23.53
2023-05-25T01:06:14.292Z,23.61
2023-05-25T01:08:49.023Z,23.68
2023-05-25T01:11:21.246Z,23.80
2023-05-25T01:13:54.556Z,23.72
2023-05-25T01:16:24.582Z,23.66
2023-05-25T01:18:55.111Z,23.78
2023-05-25T01:21:55.946Z,23.84
2023-05-25T01:24:45.786Z,23.88
2023-05-25T01:27:33.486Z,24.01
2023-05-25T01:30:06.234Z,24.06
2023-05-25T01:32:38.606Z,23.90
2023-05-25T01:35:10.365Z,24.15
2023-05-25T01:37:46.549Z,24.21
2023-05-25T01:40:16.694Z,24.41
2023-05-25T01:42:46.833Z,24.49
2023-05-25T01:45:17.901Z,24.69
2023-05-25T01:48:07.680Z,25.11
2023-05-25T01:50:55.177Z,25.30
2023-05-25T01:53:35.902Z,25.42
2023-05-25T01:56:09.732Z,25.46
2023-05-25T01:58:46.073Z,25.90
2023-05-25T02:01:20.068Z,25.96
2023-05-25T02:03:50.620Z,26.34
2023-05-25T02:06:20.922Z,26.51
2023-05-25T02:08:50.075Z,26.48
2023-05-25T02:11:20.424Z,26.98
2023-05-25T02:13:49.715Z,26.27
2023-05-25T02:16:18.748Z,26.77
2023-05-25T02:18:48.255Z,27.12
2023-05-25T02:21:18.352Z,27.90
2023-05-25T02:23:49.019Z,28.07
2023-05-25T02:26:18.308Z,28.37
2023-05-25T02:28:47.680Z,28.71
2023-05-25T02:31:19.671Z,28.16
2023-05-25T02:33:49.767Z,28.37
2023-05-25T02:36:22.180Z,28.64
2023-05-25T02:38:53.252Z,28.17
2023-05-25T02:41:22.837Z,28.58
2023-05-25T02:43:52.631Z,28.87
2023-05-25T02:46:23.859Z,28.83
2023-05-25T02:48:53.855Z,29.29
2023-05-25T02:51:23.101Z,28.88
2023-05-25T02:53:53.227Z,29.17
2023-05-25T02:56:25.194Z,29.10
2023-05-25T02:58:54.821Z,29.86
2023-05-25T03:01:35.933Z,30.13
2023-05-25T03:04:05.422Z,29.95
2023-05-25T03:06:39.170Z,30.19
2023-05-25T03:09:15.764Z,29.88
2023-05-25T03:11:46.417Z,29.74
2023-05-25T03:14:18.600Z,29.75
2023-05-25T03:16:55.358Z,29.70
2023-05-25T03:19:26.112Z,29.15
2023-05-25T03:21:55.336Z,29.39
2023-05-25T03:24:24.776Z,29.51
2023-05-25T03:26:56.224Z,29.96
2023-05-25T03:29:25.487Z,29.61
2023-05-25T03:31:55.689Z,29.47
2023-05-25T03:34:28.090Z,29.93
2023-05-25T03:36:57.840Z,29.73
2023-05-25T03:39:27.578Z,29.85
2023-05-25T03:41:58.013Z,29.63
2023-05-25T03:44:27.869Z,29.36
2023-05-25T03:46:57.086Z,29.92
2023-05-25T03:49:26.505Z,30.18
2023-05-25T03:51:56.084Z,30.71
2023-05-25T03:54:25.484Z,29.97
2023-05-25T03:57:13.341Z,30.19
2023-05-25T03:59:42.669Z,30.84
2023-05-25T04:02:12.228Z,30.67
2023-05-25T04:04:42.753Z,31.25
2023-05-25T04:07:12.617Z,30.70
2023-05-25T04:09:42.139Z,31.16
2023-05-25T04:12:11.908Z,31.32
2023-05-25T04:14:43.652Z,30.52
2023-05-25T04:17:13.930Z,30.65
2023-05-25T04:19:44.150Z,31.08
2023-05-25T04:22:13.523Z,30.59
2023-05-25T04:24:44.057Z,30.23
2023-05-25T04:27:15.254Z,30.36
2023-05-25T04:29:44.739Z,30.36
2023-05-25T04:32:34.063Z,30.38
2023-05-25T04:35:30.273Z,30.09
2023-05-25T04:38:03.711Z,30.64
2023-05-25T04:40:34.406Z,30.85
2023-05-25T04:43:06.248Z,30.20
2023-05-25T04:45:35.715Z,30.50
2023-05-25T04:48:06.372Z,30.04
2023-05-25T04:50:35.733Z,30.27
2023-05-25T04:53:06.904Z,30.54
2023-05-25T04:55:37.918Z,30.50
2023-05-25T04:58:07.271Z,30.00
2023-05-25T05:00:37.652Z,30.21
2023-05-25T05:03:07.712Z,30.19
2023-05-25T05:05:38.112Z,30.13
2023-05-25T05:08:11.286Z,29.95
2023-05-25T05:10:40.596Z,29.90
2023-05-25T05:13:12.484Z,29.78
2023-05-25T05:15:42.616Z,29.26
2023-05-25T05:18:11.991Z,29.01
2023-05-25T05:20:41.625Z,29.11
2023-05-25T05:23:11.470Z,29.00
2023-05-25T05:25:40.527Z,28.85
2023-05-25T05:28:10.077Z,28.77
2023-05-25T05:30:42.596Z,28.65
2023-05-25T05:33:12.377Z,28.09
2023-05-25T05:35:47.041Z,27.33
2023-05-25T05:38:24.076Z,26.60
2023-05-25T05:40:54.330Z,26.19
2023-05-25T05:43:25.406Z,25.95
2023-05-25T05:45:55.295Z,25.47
2023-05-25T05:48:24.451Z,24.72
2023-05-25T05:50:54.403Z,24.79
2023-05-25T05:53:24.096Z,24.68
2023-05-25T05:55:56.391Z,24.92
2023-05-25T05:58:29.769Z,25.64
2023-05-25T06:01:01.002Z,26.25
2023-05-25T06:03:30.561Z,26.02
2023-05-25T06:05:59.953Z,26.01
2023-05-25T06:08:29.297Z,25.42
2023-05-25T06:10:59.023Z,25.50
2023-05-25T06:13:28.674Z,25.45
2023-05-25T06:15:58.022Z,25.16
2023-05-25T06:18:27.586Z,25.12
2023-05-25T06:20:59.455Z,25.00
2023-05-25T06:23:28.764Z,24.83
2023-05-25T06:25:57.956Z,24.82
2023-05-25T06:28:27.159Z,24.68
2023-05-25T06:30:56.699Z,24.59
2023-05-25T06:33:25.929Z,24.56
2023-05-25T06:36:01.939Z,24.40
2023-05-25T06:38:31.667Z,24.14
2023-05-25T06:41:06.102Z,23.80
2023-05-25T06:43:35.610Z,23.85
2023-05-25T06:46:19.319Z,24.13
2023-05-25T06:48:49.558Z,24.52
2023-05-25T06:51:18.669Z,24.65
2023-05-25T06:53:48.314Z,24.65
2023-05-25T06:56:17.578Z,24.64
2023-05-25T06:58:46.731Z,24.70
2023-05-25T07:01:17.660Z,24.76
2023-05-25T07:03:47.105Z,24.80
2023-05-25T07:06:18.353Z,25.07
2023-05-25T07:08:48.049Z,25.18
2023-05-25T07:11:21.797Z,25.25
2023-05-25T07:13:51.644Z,25.21
2023-05-25T07:16:20.938Z,25.14
2023-05-25T07:18:50.549Z,25.41
2023-05-25T07:21:19.661Z,25.39
2023-05-25T07:23:49.491Z,25.63
2023-05-25T07:26:18.671Z,25.71
2023-05-25T07:28:48.660Z,25.87
2023-05-25T07:31:18.710Z,25.92
2023-05-25T07:33:48.543Z,26.25
2023-05-25T07:36:19.133Z,26.14
2023-05-25T07:38:49.206Z,26.05
2023-05-25T07:41:19.283Z,26.49
2023-05-25T07:43:48.599Z,26.90
2023-05-25T07:46:18.742Z,27.02
2023-05-25T07:48:48.479Z,27.27
2023-05-25T07:51:17.566Z,27.15
2023-05-25T07:53:46.986Z,27.31
2023-05-25T07:56:16.832Z,27.53
2023-05-25T07:58:45.999Z,27.76
2023-05-25T08:01:15.940Z,27.91
2023-05-25T08:03:49.560Z,27.36
2023-05-25T08:06:19.968Z,27.64
2023-05-25T08:08:51.038Z,27.78
2023-05-25T08:11:25.626Z,27.96
2023-05-25T08:13:55.492Z,27.76
2023-05-25T08:16:24.669Z,27.69
2023-05-25T08:18:54.327Z,28.08
2023-05-25T08:21:24.173Z,27.97
2023-05-25T08:23:55.163Z,28.34
2023-05-25T08:26:41.288Z,28.27
2023-05-25T08:29:14.384Z,28.40
2023-05-25T08:31:44.890Z,28.46
2023-05-25T08:34:14.352Z,28.44
2023-05-25T08:36:43.459Z,28.64
2023-05-25T08:39:13.214Z,28.68
2023-05-25T08:41:46.722Z,28.86
2023-05-25T08:44:16.995Z,28.79
2023-05-25T08:46:52.593Z,28.64
2023-05-25T08:49:23.990Z,28.84
2023-05-25T08:51:55.141Z,28.71
2023-05-25T08:54:36.789Z,28.90
2023-05-25T08:57:36.355Z,28.69
2023-05-25T09:00:11.606Z,28.95
2023-05-25T09:02:52.843Z,28.82
2023-05-25T09:05:23.651Z,28.77
2023-05-25T09:07:55.948Z,28.81
2023-05-25T09:10:28.875Z,29.08
2023-05-25T09:12:58.829Z,29.12
2023-05-25T09:15:28.068Z,28.98
2023-05-25T09:17:57.379Z,29.27
2023-05-25T09:20:32.973Z,29.14
2023-05-25T09:23:03.739Z,29.26
2023-05-25T09:25:34.553Z,29.34
2023-05-25T09:28:24.161Z,29.09
2023-05-25T09:30:54.087Z,29.16
2023-05-25T09:33:23.211Z,29.25
2023-05-25T09:35:53.438Z,28.89
2023-05-25T09:38:23.957Z,29.00
2023-05-25T09:40:53.305Z,29.10
2023-05-25T09:43:36.307Z,29.10
2023-05-25T09:46:10.981Z,29.07
2023-05-25T09:48:40.670Z,29.33
2023-05-25T09:51:10.590Z,29.37
2023-05-25T09:53:50.914Z,29.59
2023-05-25T09:56:20.260Z,29.42
2023-05-25T09:58:49.420Z,29.50
2023-05-25T10:01:19.228Z,29.62
2023-05-25T10:04:02.891Z,29.50
2023-05-25T10:06:34.777Z,29.22
2023-05-25T10:09:06.385Z,29.04
2023-05-25T10:11:41.096Z,29.06
2023-05-25T10:14:15.015Z,29.19
2023-05-25T10:16:51.204Z,29.08
2023-05-25T10:19:42.536Z,29.12
2023-05-25T10:22:25.910Z,28.90
2023-05-25T10:25:18.102Z,29.13
2023-05-25T10:28:06.390Z,29.04
2023-05-25T10:30:38.154Z,28.82
2023-05-25T10:33:08.833Z,28.95
2023-05-25T10:35:56.235Z,29.03
2023-05-25T10:38:35.756Z,28.82
2023-05-25T10:41:08.446Z,29.09
2023-05-25T10:43:42.541Z,29.01
2023-05-25T10:46:13.626Z,29.05
2023-05-25T10:48:50.429Z,29.05
2023-05-25T10:51:23.416Z,29.14
2023-05-25T10:54:00.509Z,29.04
2023-05-25T10:56:34.207Z,29.11
2023-05-25T10:59:03.637Z,28.99
2023-05-25T11:01:36.115Z,28.93
2023-05-25T11:04:11.695Z,28.99
2023-05-25T11:06:47.188Z,28.84
2023-05-25T11:09:39.757Z,28.82
2023-05-25T11:12:22.007Z,28.89
2023-05-25T11:15:16.587Z,28.98
2023-05-25T11:17:48.249Z,29.10
2023-05-25T11:20:25.074Z,29.06
2023-05-25T11:22:54.686Z,29.01
2023-05-25T11:25:49.876Z,28.94
2023-05-25T11:28:19.722Z,28.96
2023-05-25T11:30:48.968Z,29.00
2023-05-25T11:33:23.542Z,29.01
2023-05-25T11:35:53.612Z,28.99
2023-05-25T11:38:26.732Z,29.09
2023-05-25T11:40:55.917Z,28.96
2023-05-25T11:43:28.094Z,28.96
2023-05-25T11:46:01.440Z,28.90
2023-05-25T11:48:31.554Z,28.57
2023-05-25T11:51:08.157Z,28.71
2023-05-25T11:53:42.788Z,28.88
2023-05-25T11:56:30.624Z,28.78
2023-05-25T11:59:03.612Z,28.76
2023-05-25T12:01:35.417Z,28.70
2023-05-25T12:04:11.290Z,28.48
2023-05-25T12:06:41.408Z,28.40
2023-05-25T12:09:14.630Z,28.42
2023-05-25T12:11:46.838Z,28.47
2023-05-25T12:14:16.705Z,28.37
2023-05-25T12:16:46.621Z,28.28
2023-05-25T12:19:16.392Z,28.22
2023-05-25T12:21:48.851Z,28.36
2023-05-25T12:24:20.274Z,28.37
2023-05-25T12:27:02.827Z,28.17
2023-05-25T12:29:32.813Z,28.22
2023-05-25T12:32:06.625Z,28.26
2023-05-25T12:34:36.758Z,28.19
2023-05-25T12:37:06.940Z,28.16
2023-05-25T12:39:40.154Z,28.20
2023-05-25T12:42:16.472Z,28.26
2023-05-25T12:44:47.926Z,28.12
2023-05-25T12:47:20.637Z,28.21
2023-05-25T12:49:53.252Z,28.06
2023-05-25T12:52:38.460Z,28.03
2023-05-25T12:55:27.396Z,28.11
2023-05-25T12:58:00.653Z,28.17
2023-05-25T13:00:33.835Z,28.04
2023-05-25T13:03:04.006Z,28.07
2023-05-25T13:05:38.587Z,27.91
2023-05-25T13:08:08.780Z,27.83
2023-05-25T13:10:40.039Z,27.94
2023-05-25T13:13:09.330Z,27.92
2023-05-25T13:15:38.688Z,27.87
2023-05-25T13:18:08.027Z,27.73
2023-05-25T13:20:38.038Z,27.62
2023-05-25T13:23:07.467Z,27.60
2023-05-25T13:25:37.652Z,27.61
2023-05-25T13:28:09.186Z,27.56
2023-05-25T13:30:38.931Z,27.55
2023-05-25T13:33:08.628Z,27.57
2023-05-25T13:35:59.154Z,27.61
2023-05-25T13:38:30.657Z,27.56
2023-05-25T13:40:59.997Z,27.60
2023-05-25T13:43:30.830Z,27.56
2023-05-25T13:46:01.172Z,27.49
2023-05-25T13:48:31.357Z,27.35
2023-05-25T13:51:01.000Z,27.40
2023-05-25T13:53:30.418Z,27.39
2023-05-25T13:55:59.688Z,27.29
2023-05-25T13:58:29.074Z,27.31
2023-05-25T14:00:58.365Z,27.13
2023-05-25T14:03:27.870Z,27.12
2023-05-25T14:05:57.197Z,27.04
2023-05-25T14:08:26.798Z,27.04
2023-05-25T14:10:56.570Z,26.97
2023-05-25T14:13:26.050Z,26.96
2023-05-25T14:15:55.332Z,26.87
2023-05-25T14:18:24.621Z,26.79
2023-05-25T14:20:53.955Z,26.89
2023-05-25T14:23:23.721Z,26.81
2023-05-25T14:25:53.294Z,26.75
2023-05-25T14:28:23.576Z,26.72
2023-05-25T14:30:54.438Z,26.69
2023-05-25T14:33:23.735Z,26.71
2023-05-25T14:35:53.520Z,26.73
2023-05-25T14:38:24.421Z,26.69
2023-05-25T14:40:54.759Z,26.65
2023-05-25T14:43:24.613Z,26.65
2023-05-25T14:45:54.369Z,26.50
2023-05-25T14:48:26.475Z,26.52
2023-05-25T14:50:56.384Z,26.52
2023-05-25T14:53:26.490Z,26.50
2023-05-25T14:55:56.140Z,26.56
2023-05-25T14:58:25.378Z,26.54
2023-05-25T15:00:55.617Z,26.45
2023-05-25T15:03:26.402Z,26.37
2023-05-25T15:05:56.597Z,26.31
2023-05-25T15:08:26.208Z,26.42
2023-05-25T15:10:55.800Z,26.43
2023-05-25T15:13:24.984Z,26.36
2023-05-25T15:15:57.506Z,26.25
2023-05-25T15:18:27.779Z,26.27
2023-05-25T15:20:59.342Z,26.17
2023-05-25T15:23:29.096Z,26.13
2023-05-25T15:26:05.551Z,26.08
2023-05-25T15:28:36.127Z,26.05
2023-05-25T15:31:06.184Z,26.02
2023-05-25T15:33:51.558Z,26.13
2023-05-25T15:36:23.671Z,26.06
2023-05-25T15:38:52.980Z,26.00
2023-05-25T15:41:23.082Z,25.96
2023-05-25T15:44:02.110Z,26.04
2023-05-25T15:46:31.853Z,25.93
2023-05-25T15:49:01.110Z,26.03
2023-05-25T15:51:30.499Z,25.91
2023-05-25T15:54:00.488Z,25.85
2023-05-25T15:56:29.664Z,25.91
2023-05-25T15:59:00.046Z,25.90
2023-05-25T16:01:29.937Z,25.87
2023-05-25T16:04:00.309Z,25.87
2023-05-25T16:06:31.749Z,25.81
2023-05-25T16:09:02.148Z,25.82
2023-05-25T16:11:34.272Z,25.82
2023-05-25T16:14:03.515Z,25.87
2023-05-25T16:16:32.874Z,25.87
2023-05-25T16:19:02.435Z,25.89
2023-05-25T16:21:31.802Z,25.80
2023-05-25T16:24:01.146Z,25.74
2023-05-25T16:26:30.723Z,25.71
2023-05-25T16:29:00.164Z,25.63
2023-05-25T16:31:30.112Z,25.70
2023-05-25T16:33:59.398Z,25.70
2023-05-25T16:36:29.419Z,25.67
2023-05-25T16:38:59.230Z,25.65
2023-05-25T16:41:29.316Z,25.61
2023-05-25T16:43:59.029Z,25.66
2023-05-25T16:46:28.350Z,25.60
2023-05-25T16:48:58.330Z,25.49
2023-05-25T16:51:27.614Z,25.53
2023-05-25T16:53:57.416Z,25.49
2023-05-25T16:56:27.405Z,25.45
2023-05-25T16:58:57.258Z,25.49
2023-05-25T17:01:27.431Z,25.48
2023-05-25T17:03:57.131Z,25.51
2023-05-25T17:06:26.822Z,25.49
2023-05-25T17:08:56.949Z,25.44
2023-05-25T17:11:30.320Z,25.41
2023-05-25T17:13:59.843Z,25.43
2023-05-25T17:16:29.174Z,25.40
2023-05-25T17:18:58.568Z,25.40
2023-05-25T17:21:28.201Z,25.32
2023-05-25T17:23:57.518Z,25.23
2023-05-25T17:26:27.058Z,25.25
2023-05-25T17:28:57.562Z,25.17
2023-05-25T17:31:28.998Z,25.14
2023-05-25T17:33:59.407Z,25.23
2023-05-25T17:36:29.753Z,25.20
2023-05-25T17:38:59.448Z,25.12
2023-05-25T17:41:30.753Z,25.07
2023-05-25T17:44:00.330Z,25.07
2023-05-25T17:46:29.981Z,25.09
2023-05-25T17:48:59.614Z,25.12
2023-05-25T17:51:29.020Z,25.07
2023-05-25T17:53:58.386Z,25.16
2023-05-25T17:56:28.461Z,25.08
2023-05-25T17:58:58.341Z,25.01
2023-05-25T18:01:28.045Z,25.10
2023-05-25T18:03:57.817Z,25.10
2023-05-25T18:06:29.415Z,25.18
2023-05-25T18:08:59.213Z,25.08
2023-05-25T18:11:30.345Z,25.05
2023-05-25T18:14:00.129Z,25.09
2023-05-25T18:16:29.398Z,25.17
2023-05-25T18:18:59.035Z,25.08
2023-05-25T18:21:28.834Z,24.96
2023-05-25T18:23:58.048Z,24.88
2023-05-25T18:26:28.211Z,24.87
2023-05-25T18:28:57.885Z,24.95
2023-05-25T18:31:28.350Z,25.01
2023-05-25T18:33:58.714Z,25.03
2023-05-25T18:36:28.145Z,24.92
2023-05-25T18:38:57.874Z,24.87
2023-05-25T18:41:27.969Z,24.93
2023-05-25T18:43:57.670Z,24.89
2023-05-25T18:46:28.339Z,24.90
2023-05-25T18:48:58.134Z,24.80
2023-05-25T18:51:28.026Z,24.92
2023-05-25T18:53:59.896Z,24.99
2023-05-25T18:56:29.847Z,24.86
2023-05-25T18:59:00.896Z,24.89
2023-05-25T19:01:31.265Z,24.85
2023-05-25T19:04:08.511Z,24.72
2023-05-25T19:06:38.865Z,24.67
2023-05-25T19:09:09.429Z,24.77
2023-05-25T19:11:39.254Z,24.88
2023-05-25T19:14:09.026Z,24.89
2023-05-25T19:16:38.310Z,24.90
2023-05-25T19:19:07.988Z,24.87
2023-05-25T19:21:37.764Z,24.84
2023-05-25T19:24:07.752Z,24.81
2023-05-25T19:26:38.935Z,24.78
2023-05-25T19:29:08.546Z,24.85
2023-05-25T19:31:38.780Z,24.82
2023-05-25T19:34:08.576Z,24.79
2023-05-25T19:36:38.792Z,24.82
2023-05-25T19:39:08.372Z,24.77
2023-05-25T19:41:38.742Z,24.84
2023-05-25T19:44:09.029Z,24.88
2023-05-25T19:46:40.269Z,24.99
2023-05-25T19:49:09.816Z,24.88
2023-05-25T19:51:39.198Z,24.74
2023-05-25T19:54:08.904Z,24.77
2023-05-25T19:56:38.342Z,24.82
2023-05-25T19:59:08.485Z,24.79
2023-05-25T20:01:38.010Z,24.79
2023-05-25T20:04:07.520Z,24.61
2023-05-25T20:06:38.592Z,24.67
2023-05-25T20:09:08.389Z,24.67
2023-05-25T20:11:37.830Z,24.71
2023-05-25T20:14:09.173Z,24.73
2023-05-25T20:16:38.797Z,24.67
2023-05-25T20:19:12.025Z,24.68
2023-05-25T20:21:41.424Z,24.69
2023-05-25T20:24:10.565Z,24.73
2023-05-25T20:26:40.623Z,24.62
2023-05-25T20:29:10.228Z,24.43
2023-05-25T20:31:39.985Z,24.41
2023-05-25T20:34:09.435Z,24.30
2023-05-25T20:36:39.155Z,24.26
2023-05-25T20:39:08.345Z,24.29
2023-05-25T20:41:38.235Z,24.43
2023-05-25T20:44:07.975Z,24.36
2023-05-25T20:46:37.614Z,24.37
2023-05-25T20:49:06.823Z,24.28
2023-05-25T20:51:36.192Z,24.17
2023-05-25T20:54:05.314Z,24.24
2023-05-25T20:56:35.280Z,24.32
2023-05-25T20:59:04.600Z,24.40
2023-05-25T21:01:34.169Z,24.43
2023-05-25T21:04:03.399Z,24.47
2023-05-25T21:06:33.379Z,24.47
2023-05-25T21:09:02.631Z,24.42
2023-05-25T21:11:32.838Z,24.38
2023-05-25T21:14:02.224Z,24.54
2023-05-25T21:16:31.915Z,24.38
2023-05-25T21:19:01.724Z,24.25
2023-05-25T21:21:34.839Z,24.34
2023-05-25T21:24:04.792Z,24.26
2023-05-25T21:26:33.872Z,24.42
2023-05-25T21:29:03.558Z,24.30
2023-05-25T21:31:32.788Z,24.33
2023-05-25T21:34:02.181Z,24.42
2023-05-25T21:36:31.572Z,24.34
2023-05-25T21:39:01.622Z,24.28
2023-05-25T21:41:32.674Z,24.33
2023-05-25T21:44:02.587Z,24.33
2023-05-25T21:46:31.981Z,24.38
2023-05-25T21:49:01.027Z,24.38
2023-05-25T21:51:39.411Z,24.27
2023-05-25T21:54:08.541Z,24.22
2023-05-25T21:56:37.811Z,24.16
2023-05-25T21:59:07.648Z,24.17
2023-05-25T22:01:36.767Z,24.21
2023-05-25T22:04:06.080Z,24.24
2023-05-25T22:06:35.578Z,24.21
2023-05-25T22:09:04.579Z,24.11
2023-05-25T22:11:34.824Z,24.06
2023-05-25T22:14:04.204Z,23.93
2023-05-25T22:16:33.586Z,23.83
2023-05-25T22:19:02.763Z,23.76
2023-05-25T22:21:39.422Z,23.78
2023-05-25T22:24:08.891Z,23.77
2023-05-25T22:26:38.270Z,23.80
2023-05-25T22:29:07.971Z,23.79
2023-05-25T22:31:37.547Z,23.84
2023-05-25T22:34:06.650Z,23.70
2023-05-25T22:36:37.919Z,23.69
2023-05-25T22:39:07.098Z,23.60
2023-05-25T22:41:36.076Z,23.72
2023-05-25T22:44:05.408Z,23.79
2023-05-25T22:46:34.673Z,23.70
2023-05-25T22:49:03.815Z,23.57
2023-05-25T22:51:33.327Z,23.44
2023-05-25T22:54:02.775Z,23.53
2023-05-25T22:56:31.972Z,23.51
2023-05-25T22:59:01.409Z,23.51
2023-05-25T23:01:30.725Z,23.42
2023-05-25T23:04:00.809Z,23.41
2023-05-25T23:06:30.082Z,23.41
2023-05-25T23:08:59.354Z,23.43
2023-05-25T23:43:32.752Z,23.77
2023-05-25T23:46:02.549Z,23.69
2023-05-25T23:48:32.470Z,23.67
2023-05-25T23:51:01.563Z,23.72
2023-05-25T23:53:31.138Z,23.73
2023-05-25T23:56:00.301Z,23.87
2023-05-25T23:58:29.662Z,23.78
